sensor_id;sensor_type;location;lat;lon;timestamp;temperature;humidity
53904;DHT22;39812;52.430;16.936;2023-04-24T00:01:14;12.80;99.90
53904;DHT22;39812;52.430;16.936;2023-04-24T00:03:40;12.80;99.90
53904;DHT22;39812;52.430;16.936;2023-04-24T00:06:06;12.80;99.90
53904;DHT22;39812;52.430;16.936;2023-04-24T00:08:36;12.80;99.90
53904;DHT22;39812;52.430;16.936;2023-04-24T00:11:01;12.80;99.90
53904;DHT22;39812;52.430;16.936;2023-04-24T00:13:27;12.90;99.90
53904;DHT22;39812;52.430;16.936;2023-04-24T00:15:54;12.90;99.90
53904;DHT22;39812;52.430;16.936;2023-04-24T00:18:20;12.80;99.90
53904;DHT22;39812;52.430;16.936;2023-04-24T00:20:46;12.90;99.90
53904;DHT22;39812;52.430;16.936;2023-04-24T00:23:12;12.90;99.90
53904;DHT22;39812;52.430;16.936;2023-04-24T00:25:38;12.90;99.90
53904;DHT22;39812;52.430;16.936;2023-04-24T00:28:04;12.90;99.90
53904;DHT22;39812;52.430;16.936;2023-04-24T00:30:29;13.00;99.90
53904;DHT22;39812;52.430;16.936;2023-04-24T00:32:55;13.00;99.90
53904;DHT22;39812;52.430;16.936;2023-04-24T00:35:20;13.10;99.90
53904;DHT22;39812;52.430;16.936;2023-04-24T00:37:46;13.00;99.90
53904;DHT22;39812;52.430;16.936;2023-04-24T00:40:12;13.00;99.90
53904;DHT22;39812;52.430;16.936;2023-04-24T00:42:40;13.10;99.90
53904;DHT22;39812;52.430;16.936;2023-04-24T00:45:06;13.10;99.90
53904;DHT22;39812;52.430;16.936;2023-04-24T00:47:33;13.10;99.90
53904;DHT22;39812;52.430;16.936;2023-04-24T00:50:03;13.10;99.90
53904;DHT22;39812;52.430;16.936;2023-04-24T00:52:29;13.20;99.90
53904;DHT22;39812;52.430;16.936;2023-04-24T00:54:57;13.10;99.90
53904;DHT22;39812;52.430;16.936;2023-04-24T00:57:23;13.20;99.90
53904;DHT22;39812;52.430;16.936;2023-04-24T00:59:49;13.20;99.90
53904;DHT22;39812;52.430;16.936;2023-04-24T01:02:15;13.20;99.90
53904;DHT22;39812;52.430;16.936;2023-04-24T01:04:41;13.20;99.90
53904;DHT22;39812;52.430;16.936;2023-04-24T01:07:07;13.20;99.90
53904;DHT22;39812;52.430;16.936;2023-04-24T01:09:39;13.20;99.90
53904;DHT22;39812;52.430;16.936;2023-04-24T01:12:07;13.20;99.90
53904;DHT22;39812;52.430;16.936;2023-04-24T01:14:33;13.10;99.90
53904;DHT22;39812;52.430;16.936;2023-04-24T01:16:59;13.10;99.90
53904;DHT22;39812;52.430;16.936;2023-04-24T01:19:24;13.00;99.90
53904;DHT22;39812;52.430;16.936;2023-04-24T01:21:51;13.00;99.90
53904;DHT22;39812;52.430;16.936;2023-04-24T01:24:19;13.00;99.90
53904;DHT22;39812;52.430;16.936;2023-04-24T01:26:45;12.90;99.90
53904;DHT22;39812;52.430;16.936;2023-04-24T01:29:11;12.90;99.90
53904;DHT22;39812;52.430;16.936;2023-04-24T01:31:38;12.90;99.90
53904;DHT22;39812;52.430;16.936;2023-04-24T01:34:04;12.90;99.90
53904;DHT22;39812;52.430;16.936;2023-04-24T01:36:32;12.90;99.90
53904;DHT22;39812;52.430;16.936;2023-04-24T01:38:58;12.90;99.90
53904;DHT22;39812;52.430;16.936;2023-04-24T01:41:24;13.00;99.90
53904;DHT22;39812;52.430;16.936;2023-04-24T01:43:50;13.00;99.90
53904;DHT22;39812;52.430;16.936;2023-04-24T01:46:16;13.00;99.90
53904;DHT22;39812;52.430;16.936;2023-04-24T01:48:42;13.00;99.90
53904;DHT22;39812;52.430;16.936;2023-04-24T01:51:08;13.00;99.90
53904;DHT22;39812;52.430;16.936;2023-04-24T01:53:33;12.90;99.90
53904;DHT22;39812;52.430;16.936;2023-04-24T01:55:59;12.90;99.90
53904;DHT22;39812;52.430;16.936;2023-04-24T01:58:26;12.90;99.90
53904;DHT22;39812;52.430;16.936;2023-04-24T02:00:52;12.90;99.90
53904;DHT22;39812;52.430;16.936;2023-04-24T02:03:17;12.90;99.90
53904;DHT22;39812;52.430;16.936;2023-04-24T02:05:46;12.90;99.90
53904;DHT22;39812;52.430;16.936;2023-04-24T02:08:12;12.80;99.90
53904;DHT22;39812;52.430;16.936;2023-04-24T02:10:37;12.70;99.90
53904;DHT22;39812;52.430;16.936;2023-04-24T02:13:03;12.60;99.90
53904;DHT22;39812;52.430;16.936;2023-04-24T02:15:30;12.60;99.90
53904;DHT22;39812;52.430;16.936;2023-04-24T02:17:55;12.50;99.90
53904;DHT22;39812;52.430;16.936;2023-04-24T02:20:21;12.40;99.90
53904;DHT22;39812;52.430;16.936;2023-04-24T02:22:46;12.40;99.90
53904;DHT22;39812;52.430;16.936;2023-04-24T02:25:12;12.40;99.90
53904;DHT22;39812;52.430;16.936;2023-04-24T02:27:38;12.30;99.90
53904;DHT22;39812;52.430;16.936;2023-04-24T02:30:04;12.30;99.90
53904;DHT22;39812;52.430;16.936;2023-04-24T02:32:30;12.30;99.90
53904;DHT22;39812;52.430;16.936;2023-04-24T02:34:56;12.30;99.90
53904;DHT22;39812;52.430;16.936;2023-04-24T02:37:21;12.30;99.90
53904;DHT22;39812;52.430;16.936;2023-04-24T02:39:47;12.20;99.90
53904;DHT22;39812;52.430;16.936;2023-04-24T02:42:12;12.20;99.90
53904;DHT22;39812;52.430;16.936;2023-04-24T02:44:38;12.20;99.90
53904;DHT22;39812;52.430;16.936;2023-04-24T02:47:04;12.20;99.90
53904;DHT22;39812;52.430;16.936;2023-04-24T02:49:29;12.20;99.90
53904;DHT22;39812;52.430;16.936;2023-04-24T02:51:55;12.20;99.90
53904;DHT22;39812;52.430;16.936;2023-04-24T02:54:21;12.20;99.90
53904;DHT22;39812;52.430;16.936;2023-04-24T02:56:46;12.20;99.90
53904;DHT22;39812;52.430;16.936;2023-04-24T02:59:12;12.20;99.90
53904;DHT22;39812;52.430;16.936;2023-04-24T03:01:37;12.20;99.90
53904;DHT22;39812;52.430;16.936;2023-04-24T03:04:03;12.20;99.90
53904;DHT22;39812;52.430;16.936;2023-04-24T03:06:29;12.20;99.90
53904;DHT22;39812;52.430;16.936;2023-04-24T03:08:56;12.20;99.90
53904;DHT22;39812;52.430;16.936;2023-04-24T03:11:22;12.20;99.90
53904;DHT22;39812;52.430;16.936;2023-04-24T03:13:47;12.20;99.90
53904;DHT22;39812;52.430;16.936;2023-04-24T03:16:13;12.20;99.90
53904;DHT22;39812;52.430;16.936;2023-04-24T03:18:39;12.30;99.90
53904;DHT22;39812;52.430;16.936;2023-04-24T03:21:04;12.30;99.90
53904;DHT22;39812;52.430;16.936;2023-04-24T03:23:30;12.30;99.90
53904;DHT22;39812;52.430;16.936;2023-04-24T03:25:56;12.30;99.90
53904;DHT22;39812;52.430;16.936;2023-04-24T03:28:21;12.30;99.90
53904;DHT22;39812;52.430;16.936;2023-04-24T03:30:47;12.30;99.90
53904;DHT22;39812;52.430;16.936;2023-04-24T03:33:13;12.30;99.90
53904;DHT22;39812;52.430;16.936;2023-04-24T03:35:38;12.30;99.90
53904;DHT22;39812;52.430;16.936;2023-04-24T03:38:04;12.20;99.90
53904;DHT22;39812;52.430;16.936;2023-04-24T03:40:30;12.20;99.90
53904;DHT22;39812;52.430;16.936;2023-04-24T03:42:55;12.20;99.90
53904;DHT22;39812;52.430;16.936;2023-04-24T03:45:21;12.20;99.90
53904;DHT22;39812;52.430;16.936;2023-04-24T03:47:47;12.10;99.90
53904;DHT22;39812;52.430;16.936;2023-04-24T03:50:13;12.10;99.90
53904;DHT22;39812;52.430;16.936;2023-04-24T03:52:38;12.10;99.90
53904;DHT22;39812;52.430;16.936;2023-04-24T03:55:04;12.10;99.90
53904;DHT22;39812;52.430;16.936;2023-04-24T03:57:30;11.90;99.90
53904;DHT22;39812;52.430;16.936;2023-04-24T03:59:55;11.80;99.90
53904;DHT22;39812;52.430;16.936;2023-04-24T04:02:21;11.70;99.90
53904;DHT22;39812;52.430;16.936;2023-04-24T04:04:46;11.60;99.90
53904;DHT22;39812;52.430;16.936;2023-04-24T04:07:12;11.50;99.90
53904;DHT22;39812;52.430;16.936;2023-04-24T04:09:38;11.40;99.90
53904;DHT22;39812;52.430;16.936;2023-04-24T04:12:04;11.40;99.90
53904;DHT22;39812;52.430;16.936;2023-04-24T04:14:29;11.40;99.90
53904;DHT22;39812;52.430;16.936;2023-04-24T04:16:55;11.40;99.90
53904;DHT22;39812;52.430;16.936;2023-04-24T04:19:21;11.40;99.90
53904;DHT22;39812;52.430;16.936;2023-04-24T04:21:46;11.60;99.90
53904;DHT22;39812;52.430;16.936;2023-04-24T04:24:17;11.80;99.90
53904;DHT22;39812;52.430;16.936;2023-04-24T04:26:43;12.10;99.90
53904;DHT22;39812;52.430;16.936;2023-04-24T04:29:12;12.30;99.90
53904;DHT22;39812;52.430;16.936;2023-04-24T04:31:38;12.40;99.90
53904;DHT22;39812;52.430;16.936;2023-04-24T04:34:04;12.50;99.90
53904;DHT22;39812;52.430;16.936;2023-04-24T04:36:29;12.60;99.90
53904;DHT22;39812;52.430;16.936;2023-04-24T04:38:55;12.60;99.90
53904;DHT22;39812;52.430;16.936;2023-04-24T04:41:22;12.70;99.90
53904;DHT22;39812;52.430;16.936;2023-04-24T04:43:47;12.70;99.90
53904;DHT22;39812;52.430;16.936;2023-04-24T04:46:13;12.70;99.90
53904;DHT22;39812;52.430;16.936;2023-04-24T04:48:39;12.60;99.90
53904;DHT22;39812;52.430;16.936;2023-04-24T04:51:05;12.50;99.90
53904;DHT22;39812;52.430;16.936;2023-04-24T04:53:31;12.40;99.90
53904;DHT22;39812;52.430;16.936;2023-04-24T04:55:57;12.40;99.90
53904;DHT22;39812;52.430;16.936;2023-04-24T04:58:23;12.40;99.90
53904;DHT22;39812;52.430;16.936;2023-04-24T05:00:48;12.40;99.90
53904;DHT22;39812;52.430;16.936;2023-04-24T05:03:14;12.50;99.90
53904;DHT22;39812;52.430;16.936;2023-04-24T05:05:40;12.50;99.90
53904;DHT22;39812;52.430;16.936;2023-04-24T05:08:07;12.50;99.90
53904;DHT22;39812;52.430;16.936;2023-04-24T05:10:33;12.50;99.90
53904;DHT22;39812;52.430;16.936;2023-04-24T05:12:58;12.60;99.90
53904;DHT22;39812;52.430;16.936;2023-04-24T05:15:24;12.60;99.90
53904;DHT22;39812;52.430;16.936;2023-04-24T05:17:49;12.70;99.90
53904;DHT22;39812;52.430;16.936;2023-04-24T05:20:15;12.80;99.90
53904;DHT22;39812;52.430;16.936;2023-04-24T05:22:41;13.00;99.90
53904;DHT22;39812;52.430;16.936;2023-04-24T05:25:06;13.10;99.90
53904;DHT22;39812;52.430;16.936;2023-04-24T05:27:33;13.30;99.90
53904;DHT22;39812;52.430;16.936;2023-04-24T05:29:58;13.40;99.90
53904;DHT22;39812;52.430;16.936;2023-04-24T05:32:24;13.50;99.90
53904;DHT22;39812;52.430;16.936;2023-04-24T05:34:51;13.60;99.90
53904;DHT22;39812;52.430;16.936;2023-04-24T05:37:16;13.50;99.90
53904;DHT22;39812;52.430;16.936;2023-04-24T05:39:42;13.60;99.90
53904;DHT22;39812;52.430;16.936;2023-04-24T05:42:08;13.80;99.90
53904;DHT22;39812;52.430;16.936;2023-04-24T05:44:33;14.00;99.90
53904;DHT22;39812;52.430;16.936;2023-04-24T05:46:59;14.20;99.90
53904;DHT22;39812;52.430;16.936;2023-04-24T05:49:26;14.40;99.90
53904;DHT22;39812;52.430;16.936;2023-04-24T05:51:51;14.40;99.90
53904;DHT22;39812;52.430;16.936;2023-04-24T05:54:17;14.40;99.90
53904;DHT22;39812;52.430;16.936;2023-04-24T05:56:42;14.40;99.90
53904;DHT22;39812;52.430;16.936;2023-04-24T05:59:08;14.40;99.90
53904;DHT22;39812;52.430;16.936;2023-04-24T06:01:34;14.50;99.90
53904;DHT22;39812;52.430;16.936;2023-04-24T06:04:03;14.50;99.90
53904;DHT22;39812;52.430;16.936;2023-04-24T06:06:29;14.60;99.90
53904;DHT22;39812;52.430;16.936;2023-04-24T06:08:54;14.70;99.90
53904;DHT22;39812;52.430;16.936;2023-04-24T06:11:20;14.80;99.90
53904;DHT22;39812;52.430;16.936;2023-04-24T06:13:46;14.80;99.90
53904;DHT22;39812;52.430;16.936;2023-04-24T06:16:12;14.90;99.90
53904;DHT22;39812;52.430;16.936;2023-04-24T06:18:37;14.90;99.90
53904;DHT22;39812;52.430;16.936;2023-04-24T06:21:03;14.80;99.90
53904;DHT22;39812;52.430;16.936;2023-04-24T06:23:29;14.80;99.90
53904;DHT22;39812;52.430;16.936;2023-04-24T06:25:57;14.70;99.90
53904;DHT22;39812;52.430;16.936;2023-04-24T06:28:23;14.80;99.90
53904;DHT22;39812;52.430;16.936;2023-04-24T06:30:48;14.80;99.90
53904;DHT22;39812;52.430;16.936;2023-04-24T06:33:14;14.80;99.90
53904;DHT22;39812;52.430;16.936;2023-04-24T06:35:40;14.70;99.90
53904;DHT22;39812;52.430;16.936;2023-04-24T06:38:06;14.70;99.90
53904;DHT22;39812;52.430;16.936;2023-04-24T06:40:31;14.70;99.90
53904;DHT22;39812;52.430;16.936;2023-04-24T06:42:57;14.90;99.90
53904;DHT22;39812;52.430;16.936;2023-04-24T06:45:25;15.20;99.90
53904;DHT22;39812;52.430;16.936;2023-04-24T06:47:51;15.30;99.90
53904;DHT22;39812;52.430;16.936;2023-04-24T06:50:17;15.50;99.90
53904;DHT22;39812;52.430;16.936;2023-04-24T06:52:44;15.40;99.90
53904;DHT22;39812;52.430;16.936;2023-04-24T06:55:11;15.30;99.90
53904;DHT22;39812;52.430;16.936;2023-04-24T06:57:36;15.20;99.90
53904;DHT22;39812;52.430;16.936;2023-04-24T07:00:04;15.30;99.90
53904;DHT22;39812;52.430;16.936;2023-04-24T07:02:30;15.30;99.90
53904;DHT22;39812;52.430;16.936;2023-04-24T07:04:56;15.30;99.90
53904;DHT22;39812;52.430;16.936;2023-04-24T07:07:22;15.50;99.90
53904;DHT22;39812;52.430;16.936;2023-04-24T07:09:49;15.80;99.90
53904;DHT22;39812;52.430;16.936;2023-04-24T07:12:16;16.10;99.90
53904;DHT22;39812;52.430;16.936;2023-04-24T07:14:42;16.50;99.90
53904;DHT22;39812;52.430;16.936;2023-04-24T07:17:08;16.50;99.90
53904;DHT22;39812;52.430;16.936;2023-04-24T07:19:34;16.40;99.90
53904;DHT22;39812;52.430;16.936;2023-04-24T07:22:02;16.40;99.90
53904;DHT22;39812;52.430;16.936;2023-04-24T07:24:29;16.40;99.90
53904;DHT22;39812;52.430;16.936;2023-04-24T07:26:55;16.40;99.90
53904;DHT22;39812;52.430;16.936;2023-04-24T07:29:20;16.50;99.90
53904;DHT22;39812;52.430;16.936;2023-04-24T07:31:46;16.50;99.90
53904;DHT22;39812;52.430;16.936;2023-04-24T07:34:12;16.40;99.90
53904;DHT22;39812;52.430;16.936;2023-04-24T07:36:38;16.30;99.90
53904;DHT22;39812;52.430;16.936;2023-04-24T07:39:04;16.30;99.90
53904;DHT22;39812;52.430;16.936;2023-04-24T07:41:30;16.30;99.90
53904;DHT22;39812;52.430;16.936;2023-04-24T07:43:56;16.30;99.90
53904;DHT22;39812;52.430;16.936;2023-04-24T07:46:21;16.50;99.90
53904;DHT22;39812;52.430;16.936;2023-04-24T07:48:49;17.00;99.90
53904;DHT22;39812;52.430;16.936;2023-04-24T07:51:15;17.60;99.90
53904;DHT22;39812;52.430;16.936;2023-04-24T07:53:42;17.90;99.90
53904;DHT22;39812;52.430;16.936;2023-04-24T07:56:08;17.70;99.90
53904;DHT22;39812;52.430;16.936;2023-04-24T07:58:34;17.70;99.90
53904;DHT22;39812;52.430;16.936;2023-04-24T08:01:00;17.80;99.90
53904;DHT22;39812;52.430;16.936;2023-04-24T08:03:26;17.60;99.90
53904;DHT22;39812;52.430;16.936;2023-04-24T08:05:51;17.60;99.90
53904;DHT22;39812;52.430;16.936;2023-04-24T08:08:17;17.60;99.90
53904;DHT22;39812;52.430;16.936;2023-04-24T08:10:43;17.50;99.90
53904;DHT22;39812;52.430;16.936;2023-04-24T08:13:09;17.40;99.90
53904;DHT22;39812;52.430;16.936;2023-04-24T08:15:36;17.10;99.90
53904;DHT22;39812;52.430;16.936;2023-04-24T08:18:02;16.70;99.90
53904;DHT22;39812;52.430;16.936;2023-04-24T08:20:28;16.60;99.90
53904;DHT22;39812;52.430;16.936;2023-04-24T08:22:53;16.50;99.90
53904;DHT22;39812;52.430;16.936;2023-04-24T08:25:20;16.40;99.90
53904;DHT22;39812;52.430;16.936;2023-04-24T08:27:45;16.40;99.90
53904;DHT22;39812;52.430;16.936;2023-04-24T08:30:11;16.40;99.90
53904;DHT22;39812;52.430;16.936;2023-04-24T08:32:37;16.50;99.90
53904;DHT22;39812;52.430;16.936;2023-04-24T08:35:03;16.30;99.90
53904;DHT22;39812;52.430;16.936;2023-04-24T08:37:28;16.50;99.90
53904;DHT22;39812;52.430;16.936;2023-04-24T08:39:54;16.70;99.90
53904;DHT22;39812;52.430;16.936;2023-04-24T08:42:20;16.90;99.90
53904;DHT22;39812;52.430;16.936;2023-04-24T08:44:48;17.10;99.90
53904;DHT22;39812;52.430;16.936;2023-04-24T08:47:15;17.00;99.90
53904;DHT22;39812;52.430;16.936;2023-04-24T08:49:41;17.40;99.90
53904;DHT22;39812;52.430;16.936;2023-04-24T08:52:08;17.70;99.90
53904;DHT22;39812;52.430;16.936;2023-04-24T08:54:36;17.80;99.90
53904;DHT22;39812;52.430;16.936;2023-04-24T08:57:03;18.00;99.80
53904;DHT22;39812;52.430;16.936;2023-04-24T08:59:30;18.10;99.50
53904;DHT22;39812;52.430;16.936;2023-04-24T09:01:57;18.20;99.10
53904;DHT22;39812;52.430;16.936;2023-04-24T09:04:24;18.30;99.10
53904;DHT22;39812;52.430;16.936;2023-04-24T09:06:56;18.60;98.60
53904;DHT22;39812;52.430;16.936;2023-04-24T09:09:26;18.60;98.30
53904;DHT22;39812;52.430;16.936;2023-04-24T09:11:53;18.70;98.40
53904;DHT22;39812;52.430;16.936;2023-04-24T09:14:21;18.80;98.10
53904;DHT22;39812;52.430;16.936;2023-04-24T09:16:48;19.00;98.20
53904;DHT22;39812;52.430;16.936;2023-04-24T09:19:14;19.00;97.90
53904;DHT22;39812;52.430;16.936;2023-04-24T09:21:40;19.10;97.80
53904;DHT22;39812;52.430;16.936;2023-04-24T09:24:14;19.50;97.20
53904;DHT22;39812;52.430;16.936;2023-04-24T09:26:43;19.30;97.20
53904;DHT22;39812;52.430;16.936;2023-04-24T09:29:17;19.50;96.60
53904;DHT22;39812;52.430;16.936;2023-04-24T09:31:44;19.30;96.80
53904;DHT22;39812;52.430;16.936;2023-04-24T09:34:11;19.20;97.10
53904;DHT22;39812;52.430;16.936;2023-04-24T09:36:38;19.60;96.70
53904;DHT22;39812;52.430;16.936;2023-04-24T09:39:09;19.70;96.40
53904;DHT22;39812;52.430;16.936;2023-04-24T09:41:51;20.30;95.90
53904;DHT22;39812;52.430;16.936;2023-04-24T09:44:22;20.50;94.40
53904;DHT22;39812;52.430;16.936;2023-04-24T09:46:58;20.80;94.10
53904;DHT22;39812;52.430;16.936;2023-04-24T09:49:25;20.70;94.20
53904;DHT22;39812;52.430;16.936;2023-04-24T09:51:51;20.80;93.80
53904;DHT22;39812;52.430;16.936;2023-04-24T09:54:19;20.70;93.40
53904;DHT22;39812;52.430;16.936;2023-04-24T09:56:49;20.90;93.10
53904;DHT22;39812;52.430;16.936;2023-04-24T09:59:17;20.80;92.90
53904;DHT22;39812;52.430;16.936;2023-04-24T10:01:43;20.90;92.60
53904;DHT22;39812;52.430;16.936;2023-04-24T10:04:19;20.80;93.00
53904;DHT22;39812;52.430;16.936;2023-04-24T10:06:50;20.40;92.40
53904;DHT22;39812;52.430;16.936;2023-04-24T10:09:17;19.90;93.00
53904;DHT22;39812;52.430;16.936;2023-04-24T10:11:45;19.70;93.80
53904;DHT22;39812;52.430;16.936;2023-04-24T10:14:16;19.50;94.00
53904;DHT22;39812;52.430;16.936;2023-04-24T10:16:43;19.50;94.30
53904;DHT22;39812;52.430;16.936;2023-04-24T10:19:10;19.40;94.30
53904;DHT22;39812;52.430;16.936;2023-04-24T10:21:37;19.60;94.20
53904;DHT22;39812;52.430;16.936;2023-04-24T10:24:10;19.60;94.30
53904;DHT22;39812;52.430;16.936;2023-04-24T10:26:37;20.40;92.60
53904;DHT22;39812;52.430;16.936;2023-04-24T10:29:05;20.20;93.00
53904;DHT22;39812;52.430;16.936;2023-04-24T10:31:32;20.10;93.60
53904;DHT22;39812;52.430;16.936;2023-04-24T10:33:59;19.60;93.30
53904;DHT22;39812;52.430;16.936;2023-04-24T10:36:27;18.90;94.50
53904;DHT22;39812;52.430;16.936;2023-04-24T10:38:54;19.10;94.40
53904;DHT22;39812;52.430;16.936;2023-04-24T10:41:21;19.20;94.70
53904;DHT22;39812;52.430;16.936;2023-04-24T10:44:10;20.00;94.00
53904;DHT22;39812;52.430;16.936;2023-04-24T10:46:37;19.90;93.70
53904;DHT22;39812;52.430;16.936;2023-04-24T10:49:06;20.10;93.50
53904;DHT22;39812;52.430;16.936;2023-04-24T10:51:51;20.40;93.00
53904;DHT22;39812;52.430;16.936;2023-04-24T10:59:45;20.60;92.70
53904;DHT22;39812;52.430;16.936;2023-04-24T11:02:14;20.40;92.60
53904;DHT22;39812;52.430;16.936;2023-04-24T11:04:41;20.30;92.60
53904;DHT22;39812;52.430;16.936;2023-04-24T11:07:09;20.70;92.40
53904;DHT22;39812;52.430;16.936;2023-04-24T11:09:35;21.00;90.80
53904;DHT22;39812;52.430;16.936;2023-04-24T11:12:05;21.10;90.90
53904;DHT22;39812;52.430;16.936;2023-04-24T11:17:30;21.20;90.60
53904;DHT22;39812;52.430;16.936;2023-04-24T11:20:10;20.10;89.50
53904;DHT22;39812;52.430;16.936;2023-04-24T11:22:38;20.20;90.50
53904;DHT22;39812;52.430;16.936;2023-04-24T11:25:06;20.20;90.60
53904;DHT22;39812;52.430;16.936;2023-04-24T11:27:41;19.70;91.40
53904;DHT22;39812;52.430;16.936;2023-04-24T11:30:09;19.40;91.40
53904;DHT22;39812;52.430;16.936;2023-04-24T11:32:37;19.50;91.50
53904;DHT22;39812;52.430;16.936;2023-04-24T11:37:37;19.90;91.40
53904;DHT22;39812;52.430;16.936;2023-04-24T11:40:05;19.80;91.30
53904;DHT22;39812;52.430;16.936;2023-04-24T11:42:42;19.90;91.30
53904;DHT22;39812;52.430;16.936;2023-04-24T11:45:09;19.50;90.90
53904;DHT22;39812;52.430;16.936;2023-04-24T11:47:35;19.60;90.90
53904;DHT22;39812;52.430;16.936;2023-04-24T11:50:02;19.50;90.90
53904;DHT22;39812;52.430;16.936;2023-04-24T11:52:28;19.40;90.90
53904;DHT22;39812;52.430;16.936;2023-04-24T11:54:54;19.30;91.20
53904;DHT22;39812;52.430;16.936;2023-04-24T11:57:21;19.80;90.50
53904;DHT22;39812;52.430;16.936;2023-04-24T11:59:47;20.30;88.90
53904;DHT22;39812;52.430;16.936;2023-04-24T12:02:23;20.80;87.50
53904;DHT22;39812;52.430;16.936;2023-04-24T12:04:50;21.10;86.60
53904;DHT22;39812;52.430;16.936;2023-04-24T12:07:16;21.50;85.50
53904;DHT22;39812;52.430;16.936;2023-04-24T12:09:47;21.60;84.40
53904;DHT22;39812;52.430;16.936;2023-04-24T12:12:17;21.20;85.00
53904;DHT22;39812;52.430;16.936;2023-04-24T12:14:52;20.90;85.70
53904;DHT22;39812;52.430;16.936;2023-04-24T12:17:24;20.50;87.20
53904;DHT22;39812;52.430;16.936;2023-04-24T12:19:50;20.60;86.90
53904;DHT22;39812;52.430;16.936;2023-04-24T12:22:16;20.80;87.40
53904;DHT22;39812;52.430;16.936;2023-04-24T12:24:58;20.60;86.60
53904;DHT22;39812;52.430;16.936;2023-04-24T12:27:25;20.10;86.60
53904;DHT22;39812;52.430;16.936;2023-04-24T12:29:52;19.50;89.00
53904;DHT22;39812;52.430;16.936;2023-04-24T12:32:18;18.90;90.30
53904;DHT22;39812;52.430;16.936;2023-04-24T12:34:44;18.80;90.90
53904;DHT22;39812;52.430;16.936;2023-04-24T12:37:11;18.80;91.30
53904;DHT22;39812;52.430;16.936;2023-04-24T12:39:37;18.70;91.30
53904;DHT22;39812;52.430;16.936;2023-04-24T12:42:03;18.60;91.30
53904;DHT22;39812;52.430;16.936;2023-04-24T12:44:30;18.40;91.40
53904;DHT22;39812;52.430;16.936;2023-04-24T12:46:56;18.10;91.70
53904;DHT22;39812;52.430;16.936;2023-04-24T12:49:21;18.00;92.30
53904;DHT22;39812;52.430;16.936;2023-04-24T12:51:47;17.80;92.40
53904;DHT22;39812;52.430;16.936;2023-04-24T12:54:13;17.70;92.60
53904;DHT22;39812;52.430;16.936;2023-04-24T12:56:39;17.60;92.90
53904;DHT22;39812;52.430;16.936;2023-04-24T12:59:04;17.50;93.00
53904;DHT22;39812;52.430;16.936;2023-04-24T13:01:30;17.30;93.60
53904;DHT22;39812;52.430;16.936;2023-04-24T13:03:56;17.50;93.80
53904;DHT22;39812;52.430;16.936;2023-04-24T13:06:22;17.40;94.60
53904;DHT22;39812;52.430;16.936;2023-04-24T13:08:47;17.40;95.30
53904;DHT22;39812;52.430;16.936;2023-04-24T13:11:14;17.60;95.30
53904;DHT22;39812;52.430;16.936;2023-04-24T13:13:39;17.80;94.80
53904;DHT22;39812;52.430;16.936;2023-04-24T13:16:05;18.00;94.40
53904;DHT22;39812;52.430;16.936;2023-04-24T13:18:31;18.20;93.60
53904;DHT22;39812;52.430;16.936;2023-04-24T13:20:56;18.20;93.20
53904;DHT22;39812;52.430;16.936;2023-04-24T13:23:22;18.30;93.70
53904;DHT22;39812;52.430;16.936;2023-04-24T13:25:48;18.30;93.80
53904;DHT22;39812;52.430;16.936;2023-04-24T13:28:14;18.10;94.00
53904;DHT22;39812;52.430;16.936;2023-04-24T13:30:40;17.90;94.40
53904;DHT22;39812;52.430;16.936;2023-04-24T13:33:05;18.00;94.50
53904;DHT22;39812;52.430;16.936;2023-04-24T13:35:31;17.90;94.00
53904;DHT22;39812;52.430;16.936;2023-04-24T13:37:57;17.80;93.80
53904;DHT22;39812;52.430;16.936;2023-04-24T13:40:23;17.60;94.00
53904;DHT22;39812;52.430;16.936;2023-04-24T13:42:49;17.70;93.80
53904;DHT22;39812;52.430;16.936;2023-04-24T13:45:15;17.60;94.20
53904;DHT22;39812;52.430;16.936;2023-04-24T13:47:41;17.60;94.10
53904;DHT22;39812;52.430;16.936;2023-04-24T13:50:08;17.50;94.00
53904;DHT22;39812;52.430;16.936;2023-04-24T13:52:34;17.50;93.60
53904;DHT22;39812;52.430;16.936;2023-04-24T13:54:59;17.60;93.60
53904;DHT22;39812;52.430;16.936;2023-04-24T13:57:25;17.70;92.90
53904;DHT22;39812;52.430;16.936;2023-04-24T13:59:51;17.70;92.70
53904;DHT22;39812;52.430;16.936;2023-04-24T14:02:16;17.60;92.00
53904;DHT22;39812;52.430;16.936;2023-04-24T14:04:42;17.40;92.00
53904;DHT22;39812;52.430;16.936;2023-04-24T14:07:07;17.60;92.30
53904;DHT22;39812;52.430;16.936;2023-04-24T14:09:33;17.60;92.40
53904;DHT22;39812;52.430;16.936;2023-04-24T14:11:59;17.70;91.90
53904;DHT22;39812;52.430;16.936;2023-04-24T14:14:27;17.70;91.60
53904;DHT22;39812;52.430;16.936;2023-04-24T14:16:52;17.60;91.70
53904;DHT22;39812;52.430;16.936;2023-04-24T14:19:18;17.60;91.80
53904;DHT22;39812;52.430;16.936;2023-04-24T14:21:43;17.50;91.80
53904;DHT22;39812;52.430;16.936;2023-04-24T14:24:09;17.40;90.10
53904;DHT22;39812;52.430;16.936;2023-04-24T14:26:35;17.40;90.60
53904;DHT22;39812;52.430;16.936;2023-04-24T14:29:00;17.30;89.30
53904;DHT22;39812;52.430;16.936;2023-04-24T14:31:26;17.20;89.30
53904;DHT22;39812;52.430;16.936;2023-04-24T14:33:52;17.20;90.20
53904;DHT22;39812;52.430;16.936;2023-04-24T14:36:18;17.20;90.00
53904;DHT22;39812;52.430;16.936;2023-04-24T14:38:44;17.10;88.10
53904;DHT22;39812;52.430;16.936;2023-04-24T14:41:09;17.00;88.80
53904;DHT22;39812;52.430;16.936;2023-04-24T14:43:37;17.00;89.90
53904;DHT22;39812;52.430;16.936;2023-04-24T14:46:03;16.70;90.60
53904;DHT22;39812;52.430;16.936;2023-04-24T14:48:29;16.60;91.30
53904;DHT22;39812;52.430;16.936;2023-04-24T14:50:54;16.50;91.40
53904;DHT22;39812;52.430;16.936;2023-04-24T14:53:20;16.50;92.20
53904;DHT22;39812;52.430;16.936;2023-04-24T14:55:46;16.40;92.70
53904;DHT22;39812;52.430;16.936;2023-04-24T14:58:11;16.40;93.70
53904;DHT22;39812;52.430;16.936;2023-04-24T15:00:37;16.30;94.20
53904;DHT22;39812;52.430;16.936;2023-04-24T15:03:03;16.30;94.60
53904;DHT22;39812;52.430;16.936;2023-04-24T15:05:29;16.30;94.50
53904;DHT22;39812;52.430;16.936;2023-04-24T15:07:55;16.10;94.70
53904;DHT22;39812;52.430;16.936;2023-04-24T15:10:21;16.00;95.00
53904;DHT22;39812;52.430;16.936;2023-04-24T15:12:48;15.80;94.90
53904;DHT22;39812;52.430;16.936;2023-04-24T15:15:14;15.70;95.20
53904;DHT22;39812;52.430;16.936;2023-04-24T15:17:40;15.60;96.00
53904;DHT22;39812;52.430;16.936;2023-04-24T15:20:06;15.50;95.80
53904;DHT22;39812;52.430;16.936;2023-04-24T15:22:32;15.20;96.40